Flight Track Log - Related Links

Times and Time Zones

All times are in EDT time to prevent confusion due to time zone crossing. See the UAL4533 flight status page for this flight to view local times or setup timezone preferences in your user account.

Time Position Orientation Groundspeed Altitude Reporting Facility
EDT Latitude Longitude Course Direction KTS MPH feet Rate Location/Type
Mon 10:01:43 AM 41.7314 -71.4206 15° North 161 185 500  Level Boston Center
Mon 10:02:07 AM 41.7478 -71.4147 15° North 144 166 1,800 2,308 Climbing Boston Center
Mon 10:02:48 AM 41.7772 -71.4303 338° Northwest 176 203 3,000 2,136 Climbing Boston Center
Mon 10:03:06 AM 41.7900 -71.4506 310° West 206 237 3,900 2,300 Climbing Boston Center
Mon 10:03:48 AM 41.8128 -71.5011 301° West 223 257 5,300 1,770 Climbing Boston Center
Mon 10:04:07 AM 41.8222 -71.5258 297° West 250 288 5,700 1,742 Climbing Boston Center
Mon 10:04:50 AM 41.8481 -71.5864 300° West 267 307 7,100 2,192 Climbing Boston Center
Mon 10:05:51 AM 41.8853 -71.6739 300° West 271 312 9,500 2,262 Climbing Boston Center
Mon 10:06:52 AM 41.9258 -71.7725 299° West 280 322 11,700 2,066 Climbing Boston Center
Mon 10:07:53 AM 41.9631 -71.8689 297° West 289 333 13,700 1,869 Climbing Boston Center
Mon 10:08:54 AM 41.9858 -71.9706 287° West 293 337 15,500 1,785 Climbing Boston Center
Mon 10:09:54 AM 42.0136 -72.0847 288° West 301 346 17,300 1,785 Climbing Boston Center
Mon 10:10:55 AM 42.0383 -72.1894 288° West 303 349 19,100 1,636 Climbing Boston Center
Mon 10:11:55 AM 42.0639 -72.2936 288° West 314 361 20,600 1,548 Climbing Boston Center
Mon 10:12:59 AM 42.0914 -72.4094 288° West 324 373 22,300 1,632 Climbing Boston Center
Mon 10:14:00 AM 42.1186 -72.5261 287° West 325 374 24,000 1,650 Climbing Boston Center
Mon 10:14:59 AM 42.1461 -72.6439 288° West 329 379 25,600 1,475 Climbing Boston Center
Mon 10:16:02 AM 42.1325 -72.7661 261° West 354 407 27,000 1,065 Climbing Boston Center
Mon 10:17:03 AM 42.0697 -72.8742 232° Southwest 368 423 27,800 878 Climbing Boston Center
Mon 10:18:05 AM 41.9900 -73.0103 232° Southwest 382 440 28,800 885 Climbing Boston Center
Mon 10:19:05 AM 41.9211 -73.1278 232° Southwest 391 450 29,600 595 Climbing Boston Center
Mon 10:20:06 AM 41.8492 -73.2475 231° Southwest 401 461 30,000 195 Climbing Boston Center
Mon 10:21:08 AM 41.7742 -73.3719 231° Southwest 418 481 30,000  Level Boston Center
Mon 10:22:09 AM 41.6875 -73.4969 227° Southwest 441 507 30,000 -344 Level Boston Center
Mon 10:23:10 AM 41.5975 -73.6231 226° Southwest 457 526 29,300 -836 Descending Boston Center
Mon 10:24:11 AM 41.5117 -73.7436 226° Southwest 458 527 28,300 -650 Descending Boston Center
Mon 10:25:10 AM 41.4292 -73.8614 227° Southwest 442 509 28,000 -146 Descending Boston Center
Mon 10:26:14 AM 41.3450 -73.9786 226° Southwest 439 505 28,000 -339 Level Boston Center
Mon 10:27:14 AM 41.2603 -74.0983 227° Southwest 442 509 27,300 -992 Descending Boston Center
Mon 10:28:15 AM 41.1564 -74.2428 226° Southwest 448 516 26,000 -634 Descending Boston Center
Mon 10:29:17 AM 41.0722 -74.3589 226° Southwest 442 509 26,000  Level Boston Center
Mon 10:30:18 AM 40.9928 -74.4714 227° Southwest 427 491 26,000  Level Boston Center
Mon 10:31:19 AM 40.9108 -74.5861 227° Southwest 435 501 26,000  Level Boston Center
Mon 10:32:21 AM 40.8439 -74.7258 238° Southwest 448 516 26,000  Level Boston Center
Mon 10:33:21 AM 40.7800 -74.8686 239° Southwest 449 517 26,000  Level Boston Center
Mon 10:34:21 AM 40.7133 -75.0156 239° Southwest 454 522 26,000  Level Boston Center
Mon 10:35:22 AM 40.6469 -75.1597 239° Southwest 460 529 26,000  Level Boston Center
Mon 10:36:23 AM 40.5800 -75.3058 239° Southwest 462 532 26,000 -590 Level Boston Center
Mon 10:37:24 AM 40.5133 -75.4497 239° Southwest 464 534 24,800 -1,525 Descending Boston Center
Mon 10:38:25 AM 40.4469 -75.5925 239° Southwest 462 532 22,900 -2,104 Descending Boston Center
Mon 10:39:38 AM 40.3594 -75.7828 239° Southwest 447 514 20,100 -1,308 Descending New York Center
Mon 10:40:38 AM 40.2950 -75.9225 239° Southwest 447 514 20,000 -50 Descending New York Center
Mon 10:41:39 AM 40.2283 -76.0642 238° Southwest 453 521 20,000 -600 Level New York Center
Mon 10:42:38 AM 40.1706 -76.1875 239° Southwest 453 521 18,800 -1,261 Descending New York Center
Mon 10:43:38 AM 40.1061 -76.3183 237° Southwest 439 505 17,500 -900 Descending New York Center
Mon 10:44:38 AM 40.0408 -76.4594 239° Southwest 424 488 17,000 -800 Descending New York Center
Mon 10:45:38 AM 39.9847 -76.5850 240° Southwest 403 464 15,900 -635 Descending New York Center
Mon 10:47:47 AM 39.8667 -76.8500 240° Southwest 397 457 15,000 -571 Descending Potomac TRACON
Mon 10:48:47 AM 39.8000 -76.9667 233° Southwest 385 443 14,100 -1,558 Descending Potomac TRACON
Mon 10:50:00 AM 39.7265 -77.1233 239° Southwest  Level FlightAware Approximate
Mon 10:50:48 AM 39.7000 -77.2000 239° Southwest 395 455 10,300  Level Potomac TRACON
Mon 10:51:48 AM 39.6333 -77.3167 233° Southwest 357 411 10,000 -350 Descending Potomac TRACON
Mon 10:52:48 AM 39.5333 -77.3500 194° South 343 395 9,600 -1,100 Descending Potomac TRACON
Mon 10:53:48 AM 39.4500 -77.3500 180° South 327 376 7,800 -1,400 Descending Potomac TRACON
Mon 10:54:48 AM 39.3667 -77.3667 189° South 315 362 6,800 -893 Descending Potomac TRACON
Mon 10:55:49 AM 39.2667 -77.3667 180° South 310 357 6,000 -446 Descending Potomac TRACON
Mon 10:56:49 AM 39.1833 -77.3667 180° South 308 354 5,900 -500 Descending Potomac TRACON
Mon 10:57:49 AM 39.1000 -77.3500 171° South 293 337 5,000 -647 Descending Potomac TRACON
Mon 11:00:50 AM 38.8667 -77.3500 349° North 270 311 3,300 -331 Descending Potomac TRACON
Mon 11:03:51 AM 38.7000 -77.4167 349° North 201 231 3,000 -60 Descending Potomac TRACON
Mon 11:05:00 AM 38.8200 -77.4376 339° North  Level Estimated
Mon 11:05:52 AM 38.7833 -77.4333 339° North 160 184 3,000  Level Potomac TRACON
Mon 11:06:00 AM 38.9333 -77.4500 349° North  Level FlightAware Approximate
Mon 11:07:52 AM 38.8667 -77.4333 360° North 134 154 1,400  Level Potomac TRACON
Mon 11:09:00 AM 38.9474 -77.4599 349° North  Level Estimated

Login

Don't have an account? Register now (free) for customized features, flight alerts, and more!